Time;durP1;ratioP1;P1;durP2;ratioP2;P2;SDS_P1;SDS_P2;PMS_P1;PMS_P2;Temp;Humidity;BMP_temperature;BMP_pressure;BME280_temperature;BME280_humidity;BME280_pressure;Samples;Min_cycle;Max_cycle;Signal;HPM_P1;HPM_P2
2022/08/02 00:00:02;;;;;;;17.40;8.40;;;;;;;15.84;61.78;101754.13;5111576;28;20023;-58
2022/08/02 00:02:27;;;;;;;15.82;8.45;;;;;;;16.05;61.80;101782.31;5111229;28;20062;-59
2022/08/02 00:04:52;;;;;;;16.25;8.60;;;;;;;15.94;62.03;101766.16;5111881;28;20024;-59
2022/08/02 00:07:18;;;;;;;17.63;8.27;;;;;;;16.03;62.49;101764.22;5111588;28;20181;-59
2022/08/02 00:09:43;;;;;;;18.10;8.57;;;;;;;16.01;62.24;101763.75;5111559;28;20088;-59
2022/08/02 00:12:10;;;;;;;17.58;9.15;;;;;;;15.92;63.01;101757.28;5113317;28;20024;-60
2022/08/02 00:14:36;;;;;;;17.05;8.40;;;;;;;15.90;63.60;101766.81;5111480;28;20491;-59
2022/08/02 00:17:02;;;;;;;17.05;8.63;;;;;;;15.86;63.50;101757.41;5111174;28;20027;-60
2022/08/02 00:19:27;;;;;;;16.95;9.02;;;;;;;15.84;63.75;101767.25;5110923;28;20463;-60
2022/08/02 00:21:52;;;;;;;16.85;9.10;;;;;;;15.79;63.83;101773.75;5111701;28;20034;-60
2022/08/02 00:24:18;;;;;;;17.48;9.60;;;;;;;15.74;64.08;101771.09;5110754;28;20026;-60
2022/08/02 00:26:43;;;;;;;17.10;9.07;;;;;;;15.70;64.34;101770.91;5110927;28;20032;-59
2022/08/02 00:29:09;;;;;;;17.63;9.25;;;;;;;15.60;64.61;101771.16;5110521;28;20020;-59
2022/08/02 00:31:34;;;;;;;17.95;9.32;;;;;;;15.60;64.30;101766.44;5112102;28;20381;-59
2022/08/02 00:34:00;;;;;;;18.73;9.43;;;;;;;15.49;63.55;101750.28;5110595;28;20035;-59
2022/08/02 00:36:25;;;;;;;16.98;9.30;;;;;;;15.56;63.96;101759.03;5114478;28;20047;-59
2022/08/02 00:38:50;;;;;;;18.35;9.68;;;;;;;15.48;63.74;101745.84;5115954;28;20128;-59
2022/08/02 00:41:18;;;;;;;17.85;10.07;;;;;;;15.64;63.33;101766.63;5115102;28;20028;-59
2022/08/02 00:43:45;;;;;;;18.00;10.02;;;;;;;15.61;62.55;101770.03;5116007;27;20143;-59
2022/08/02 00:46:11;;;;;;;16.38;9.60;;;;;;;15.40;63.06;101737.09;5115256;28;20028;-59
2022/08/02 00:48:37;;;;;;;18.23;9.40;;;;;;;15.56;62.59;101770.19;5114864;28;20447;-59
2022/08/02 00:51:03;;;;;;;18.10;9.15;;;;;;;15.33;62.36;101733.91;5115238;28;20383;-59
2022/08/02 00:53:28;;;;;;;16.17;9.23;;;;;;;15.49;62.51;101750.28;5114552;28;20032;-59
2022/08/02 00:55:54;;;;;;;17.15;9.65;;;;;;;15.36;62.90;101738.88;5114285;28;20043;-59
2022/08/02 00:58:20;;;;;;;17.30;9.40;;;;;;;15.44;63.24;101746.47;5115003;28;20023;-59
2022/08/02 01:00:45;;;;;;;17.08;9.23;;;;;;;15.27;62.80;101738.00;5114432;28;20085;-60
2022/08/02 01:03:10;;;;;;;18.15;9.10;;;;;;;15.26;62.75;101744.69;5114380;28;20027;-59
2022/08/02 01:05:36;;;;;;;19.55;9.68;;;;;;;15.35;62.98;101753.13;5116103;28;20059;-58
2022/08/02 01:08:02;;;;;;;18.10;9.27;;;;;;;15.27;62.86;101740.78;5115715;28;20059;-59
2022/08/02 01:10:27;;;;;;;17.00;9.32;;;;;;;15.21;63.10;101725.31;5115808;28;20221;-59
2022/08/02 01:12:52;;;;;;;18.00;9.05;;;;;;;15.18;63.73;101732.34;5115607;28;20023;-59
2022/08/02 01:15:18;;;;;;;17.52;9.00;;;;;;;15.18;63.20;101731.53;5115788;28;20430;-59
2022/08/02 01:17:48;;;;;;;19.65;9.65;;;;;;;15.16;63.03;101731.00;5114728;28;20365;-59
2022/08/02 01:20:45;;;;;;;17.38;9.60;;;;;;;15.22;63.13;101750.09;5116038;28;20078;-59
2022/08/02 01:23:14;;;;;;;16.35;9.20;;;;;;;15.18;63.45;101745.47;5115284;28;20043;-59
2022/08/02 01:26:10;;;;;;;19.52;8.95;;;;;;;15.06;62.97;101738.47;5115219;28;20024;-59
2022/08/02 01:28:53;;;;;;;18.08;9.10;;;;;;;14.94;63.10;101719.53;5114777;28;20032;-59
2022/08/02 01:31:36;;;;;;;17.35;9.27;;;;;;;15.02;64.14;101754.16;5114809;28;20038;-59
2022/08/02 01:34:16;;;;;;;18.15;10.00;;;;;;;14.94;64.31;101733.47;5115033;28;20113;-59
2022/08/02 01:36:47;;;;;;;17.75;9.20;;;;;;;14.95;64.58;101731.50;5115516;28;20194;-59
2022/08/02 01:39:16;;;;;;;17.63;9.40;;;;;;;15.01;64.31;101734.97;5115821;28;20024;-59
2022/08/02 01:41:43;;;;;;;18.40;8.80;;;;;;;15.02;63.93;101740.22;5113590;28;20027;-59
2022/08/02 01:44:12;;;;;;;18.30;9.27;;;;;;;14.97;64.11;101732.81;5114744;28;20071;-59
2022/08/02 01:46:39;;;;;;;16.85;8.73;;;;;;;14.94;64.36;101727.06;5115170;28;20375;-59
2022/08/02 01:49:08;;;;;;;17.45;9.05;;;;;;;14.88;63.69;101715.19;5115252;28;20447;-59
2022/08/02 01:54:23;;;;;;;14.45;8.50;;;;;;;14.86;64.49;101711.94;5115144;28;20051;-60
2022/08/02 01:56:50;;;;;;;17.67;8.82;;;;;;;14.94;64.66;101727.06;5113359;28;20024;-60
2022/08/02 01:59:21;;;;;;;16.63;8.50;;;;;;;14.89;64.40;101728.00;5115078;28;20051;-60
2022/08/02 02:01:50;;;;;;;16.95;8.75;;;;;;;14.87;64.80;101724.72;5115029;28;20024;-60
2022/08/02 02:04:16;;;;;;;16.02;8.50;;;;;;;14.85;64.46;101715.00;5113740;28;20526;-60
2022/08/02 02:06:43;;;;;;;17.88;9.02;;;;;;;14.84;64.53;101716.16;5114890;28;20084;-63
2022/08/02 02:09:13;;;;;;;18.75;8.48;;;;;;;14.83;65.04;101726.47;5113200;28;20331;-60
2022/08/02 02:11:41;;;;;;;15.68;8.55;;;;;;;14.82;64.91;101725.66;5114774;28;20027;-60
2022/08/02 02:14:10;;;;;;;16.25;8.25;;;;;;;14.84;65.24;101716.97;5114621;28;20077;-59
2022/08/02 02:16:36;;;;;;;15.35;8.30;;;;;;;14.83;64.88;101715.34;5114723;28;20424;-60
2022/08/02 02:19:03;;;;;;;16.60;8.90;;;;;;;14.75;65.13;101693.81;5114779;28;20085;-60
2022/08/02 02:21:29;;;;;;;18.17;8.60;;;;;;;14.78;64.72;101698.75;5114392;28;20092;-60
2022/08/02 02:23:55;;;;;;;18.45;8.63;;;;;;;14.79;64.92;101700.38;5114172;28;20431;-59
2022/08/02 02:26:22;;;;;;;16.80;8.23;;;;;;;14.73;65.33;101704.44;5113173;28;20463;-60
2022/08/02 02:28:50;;;;;;;15.63;8.63;;;;;;;14.68;65.40;101696.19;5114868;27;20065;-60
2022/08/02 02:31:18;;;;;;;17.15;8.73;;;;;;;14.68;65.60;101685.88;5114478;28;20032;-60
2022/08/02 02:33:49;;;;;;;15.85;8.65;;;;;;;14.64;65.59;101684.84;5114873;27;20098;-60
2022/08/02 02:36:17;;;;;;;16.40;8.73;;;;;;;14.44;65.41;101653.53;5114784;28;20107;-60
2022/08/02 02:38:44;;;;;;;17.52;8.75;;;;;;;14.57;65.83;101676.06;5113026;28;20066;-60
2022/08/02 02:41:11;;;;;;;17.67;8.60;;;;;;;14.56;65.50;101674.41;5113247;28;20096;-60
2022/08/02 02:43:38;;;;;;;17.08;9.15;;;;;;;14.55;65.83;101676.38;5112566;28;20047;-59
2022/08/02 02:46:05;;;;;;;14.45;8.60;;;;;;;14.51;66.33;101672.56;5113762;28;20019;-60
2022/08/02 02:48:31;;;;;;;18.98;8.95;;;;;;;14.50;66.11;101680.13;5112639;28;20039;-59
2022/08/02 02:50:57;;;;;;;16.65;8.57;;;;;;;14.51;65.81;101681.75;5113949;28;20382;-60
2022/08/02 02:53:23;;;;;;;17.65;8.80;;;;;;;14.44;66.45;101673.03;5112705;28;20019;-60
2022/08/02 02:55:49;;;;;;;17.17;8.70;;;;;;;14.42;66.15;101677.22;5114527;28;20088;-60
2022/08/02 02:58:14;;;;;;;17.73;8.75;;;;;;;14.42;66.36;101688.38;5113887;28;20046;-60
2022/08/02 03:03:24;;;;;;;16.77;8.23;;;;;;;14.35;66.79;101680.47;5113772;28;20039;-59
2022/08/02 03:05:50;;;;;;;15.98;8.38;;;;;;;14.22;66.87;101670.16;5113654;28;20047;-60
2022/08/02 03:08:15;;;;;;;16.58;8.25;;;;;;;14.24;67.49;101653.97;5113209;28;20028;-59
2022/08/02 03:10:44;;;;;;;17.92;8.50;;;;;;;14.22;67.43;101656.25;5113609;28;20043;-60
2022/08/02 03:13:11;;;;;;;18.13;8.88;;;;;;;14.29;67.30;101673.34;5113554;28;20035;-60
2022/08/02 03:15:38;;;;;;;15.63;8.70;;;;;;;14.28;67.16;101668.91;5113399;28;20464;-60
2022/08/02 03:18:06;;;;;;;16.05;8.32;;;;;;;14.24;67.64;101667.91;5113068;28;20034;-60
2022/08/02 03:20:32;;;;;;;16.95;8.60;;;;;;;14.13;67.77;101659.75;5113657;28;20158;-60
2022/08/02 03:22:57;;;;;;;16.30;8.50;;;;;;;14.12;67.80;101669.25;5113577;28;20137;-60
2022/08/02 03:25:22;;;;;;;16.92;9.07;;;;;;;14.08;68.46;101653.47;5112110;28;20164;-60
2022/08/02 03:27:47;;;;;;;18.17;9.20;;;;;;;14.11;67.93;101661.22;5113285;28;20462;-60
2022/08/02 03:30:13;;;;;;;17.85;9.80;;;;;;;14.16;67.98;101678.63;5113058;28;20033;-60
2022/08/02 03:32:41;;;;;;;17.00;9.80;;;;;;;14.06;68.69;101673.28;5111270;28;20032;-60
2022/08/02 03:35:09;;;;;;;19.73;10.05;;;;;;;14.12;68.87;101679.56;5113205;28;20452;-60
2022/08/02 03:37:36;;;;;;;19.27;10.05;;;;;;;14.07;69.04;101672.13;5113006;28;20031;-60
2022/08/02 03:40:05;;;;;;;18.90;9.88;;;;;;;14.09;69.35;101664.28;5113412;28;20031;-60
2022/08/02 03:42:30;;;;;;;19.65;9.88;;;;;;;14.09;69.25;101669.84;5113173;28;20024;-60
2022/08/02 03:44:57;;;;;;;19.60;10.43;;;;;;;13.89;69.70;101644.09;5113137;28;20049;-60
2022/08/02 03:47:23;;;;;;;18.35;10.18;;;;;;;14.02;69.42;101649.97;5111081;28;20374;-60
2022/08/02 03:49:50;;;;;;;17.90;9.77;;;;;;;13.86;70.01;101619.69;5112948;28;20019;-60
2022/08/02 03:52:15;;;;;;;21.10;10.93;;;;;;;13.92;70.12;101642.69;5111826;28;20030;-60
2022/08/02 03:54:41;;;;;;;18.20;10.13;;;;;;;13.92;70.22;101647.41;5112658;28;20110;-60
2022/08/02 03:57:06;;;;;;;17.65;10.23;;;;;;;13.79;70.80;101627.63;5111091;28;20413;-60
2022/08/02 03:59:42;;;;;;;19.00;10.30;;;;;;;13.94;70.63;101645.94;5112234;28;20106;-60
2022/08/02 04:02:08;;;;;;;19.35;10.65;;;;;;;13.88;71.08;101645.25;5111111;28;20107;-60
2022/08/02 04:04:34;;;;;;;18.00;10.18;;;;;;;13.89;71.15;101641.31;5112838;28;20042;-60
2022/08/02 04:06:59;;;;;;;19.15;9.85;;;;;;;13.99;71.22;101653.38;5112572;28;20073;-61
2022/08/02 04:09:24;;;;;;;18.90;10.77;;;;;;;13.93;71.24;101644.31;5110204;28;20039;-59
2022/08/02 04:11:50;;;;;;;20.63;10.93;;;;;;;13.98;71.52;101637.84;5112103;28;20117;-59
2022/08/02 04:14:15;;;;;;;18.98;10.20;;;;;;;14.05;71.75;101649.38;5112259;28;20130;-59
2022/08/02 04:16:45;;;;;;;19.17;10.45;;;;;;;13.97;71.45;101633.41;5110583;28;20026;-60
2022/08/02 04:19:18;;;;;;;18.33;10.30;;;;;;;14.06;71.35;101639.03;5112146;28;20081;-59
2022/08/02 04:21:47;;;;;;;17.87;10.50;;;;;;;14.05;71.29;101632.66;5112648;28;20034;-59
2022/08/02 04:24:16;;;;;;;19.20;10.75;;;;;;;14.17;71.66;101640.47;5112244;28;20028;-59
2022/08/02 04:26:42;;;;;;;20.25;10.70;;;;;;;14.22;71.68;101651.47;5112355;28;20031;-59
2022/08/02 04:29:10;;;;;;;18.30;10.45;;;;;;;14.22;71.62;101647.91;5112365;28;20128;-59
2022/08/02 04:31:36;;;;;;;19.42;11.00;;;;;;;14.17;71.61;101637.69;5110669;28;20071;-59
2022/08/02 04:34:02;;;;;;;18.63;10.93;;;;;;;14.25;71.70;101652.84;5112320;28;20115;-59
2022/08/02 04:36:28;;;;;;;19.55;10.40;;;;;;;14.29;71.51;101653.84;5112275;28;20486;-59
2022/08/02 04:38:53;;;;;;;20.08;10.02;;;;;;;14.29;71.93;101653.84;5111658;28;20092;-60
2022/08/02 04:41:19;;;;;;;19.98;10.73;;;;;;;14.33;71.85;101661.25;5111642;28;20027;-60
2022/08/02 04:43:44;;;;;;;18.98;10.70;;;;;;;14.30;71.66;101656.34;5111436;28;20040;-59
2022/08/02 04:46:09;;;;;;;19.77;10.07;;;;;;;14.31;71.99;101657.16;5111649;28;20528;-59
2022/08/02 04:48:35;;;;;;;17.70;9.95;;;;;;;14.33;72.05;101652.09;5111911;28;20024;-60
2022/08/02 04:51:00;;;;;;;18.23;10.45;;;;;;;14.32;72.26;101651.28;5111913;28;20024;-59
2022/08/02 04:53:25;;;;;;;21.75;11.45;;;;;;;14.38;72.27;101654.75;5111838;28;20752;-59
2022/08/02 04:55:51;;;;;;;19.83;11.10;;;;;;;14.30;72.45;101641.59;5112401;28;20127;-59
2022/08/02 04:58:16;;;;;;;20.52;10.82;;;;;;;14.29;72.77;101645.50;5110692;28;20028;-59
2022/08/02 05:00:41;;;;;;;20.75;11.07;;;;;;;14.29;72.76;101648.28;5112431;28;20032;-59
2022/08/02 05:03:07;;;;;;;20.60;10.88;;;;;;;14.27;73.03;101643.03;5110577;28;20057;-60
2022/08/02 05:05:33;;;;;;;20.00;11.15;;;;;;;14.27;73.16;101631.91;5111581;28;20486;-61
2022/08/02 05:07:58;;;;;;;20.17;10.57;;;;;;;14.31;73.03;101641.25;5111799;28;20023;-62
2022/08/02 05:10:23;;;;;;;20.88;11.02;;;;;;;14.40;73.08;101637.78;5112003;28;20451;-58
2022/08/02 05:12:49;;;;;;;20.23;10.77;;;;;;;14.45;73.04;101641.22;5111942;28;20038;-60
2022/08/02 05:15:17;;;;;;;20.15;10.90;;;;;;;14.55;73.04;101634.63;5111971;28;20123;-60
2022/08/02 05:17:43;;;;;;;19.65;10.93;;;;;;;14.64;72.80;101640.28;5111882;28;20024;-60
2022/08/02 05:20:09;;;;;;;19.90;10.82;;;;;;;14.65;72.94;101634.38;5111893;28;20119;-61
2022/08/02 05:22:34;;;;;;;21.58;11.27;;;;;;;14.85;72.36;101642.59;5115100;28;20439;-60
2022/08/02 05:24:59;;;;;;;20.27;11.35;;;;;;;14.97;72.34;101640.06;5115497;28;20023;-60
2022/08/02 05:27:25;;;;;;;22.42;11.13;;;;;;;15.07;71.77;101637.03;5115213;28;20045;-61
2022/08/02 05:29:50;;;;;;;21.23;11.13;;;;;;;15.11;71.68;101626.06;5116009;28;20081;-61
2022/08/02 05:32:17;;;;;;;19.63;11.32;;;;;;;15.15;71.67;101632.66;5114413;28;20123;-60
2022/08/02 05:34:43;;;;;;;19.10;11.10;;;;;;;15.26;71.87;101620.06;5115770;28;20037;-60
2022/08/02 05:37:09;;;;;;;20.38;11.20;;;;;;;15.23;71.67;101606.78;5115484;28;20019;-60
2022/08/02 05:39:34;;;;;;;20.90;11.45;;;;;;;15.46;71.48;101628.22;5114348;28;20031;-60
2022/08/02 05:41:59;;;;;;;20.83;12.10;;;;;;;15.46;71.67;101620.66;5114024;28;20103;-60
2022/08/02 05:44:25;;;;;;;21.63;11.80;;;;;;;15.49;71.70;101614.47;5115103;28;20402;-60
2022/08/02 05:46:50;;;;;;;19.50;11.35;;;;;;;15.66;72.00;101615.66;5115104;28;20085;-61
2022/08/02 05:49:16;;;;;;;20.27;11.70;;;;;;;15.81;72.00;101614.41;5113733;28;20070;-61
2022/08/02 05:52:08;;;;;;;19.92;12.00;;;;;;;15.89;71.54;101611.69;5115199;28;20506;-60
2022/08/02 05:54:49;;;;;;;20.73;11.90;;;;;;;16.00;72.02;101625.34;5114131;28;20059;-60
2022/08/02 05:57:38;;;;;;;21.80;12.35;;;;;;;15.96;71.94;101611.22;5115167;28;20016;-60
2022/08/02 06:00:10;;;;;;;21.88;12.88;;;;;;;16.17;72.40;101633.75;5114757;28;20039;-60
2022/08/02 06:02:43;;;;;;;23.08;13.35;;;;;;;16.27;72.62;101635.41;5114930;28;20028;-60
2022/08/02 06:05:12;;;;;;;;;;;;;;;16.40;71.65;101630.00;5115496;27;20122;-60
2022/08/02 06:07:40;;;;;;;23.65;13.15;;;;;;;16.49;72.67;101642.81;5113761;28;19908;-60
2022/08/02 06:10:07;;;;;;;21.63;13.27;;;;;;;16.59;72.53;101632.47;5113097;28;20058;-60
2022/08/02 06:12:44;;;;;;;22.20;13.45;;;;;;;16.91;71.85;101631.16;5113476;28;20450;-60
2022/08/02 06:15:13;;;;;;;22.58;13.65;;;;;;;17.20;71.51;101640.03;5113788;28;20027;-61
2022/08/02 06:17:40;;;;;;;23.02;14.43;;;;;;;17.30;71.91;101640.47;5113846;28;20388;-62
2022/08/02 06:20:06;;;;;;;20.95;13.25;;;;;;;17.46;71.90;101637.16;5114005;28;20106;-60
2022/08/02 06:22:33;;;;;;;22.88;14.55;;;;;;;17.57;71.99;101643.22;5114921;27;20038;-61
2022/08/02 06:25:00;;;;;;;23.70;14.43;;;;;;;17.60;72.10;101639.75;5113501;28;20368;-61
2022/08/02 06:27:26;;;;;;;22.75;14.48;;;;;;;17.59;72.61;101629.72;5114124;28;20026;-60
2022/08/02 06:29:53;;;;;;;22.48;14.98;;;;;;;17.67;73.12;101628.84;5114962;28;20144;-60
2022/08/02 06:32:19;;;;;;;23.17;14.07;;;;;;;17.77;72.39;101638.84;5112754;28;20034;-60
2022/08/02 06:34:45;;;;;;;22.33;15.00;;;;;;;17.84;72.64;101625.16;5114870;28;20107;-61
2022/08/02 06:37:25;;;;;;;22.10;15.30;;;;;;;17.88;72.72;101620.50;5112694;28;20023;-60
2022/08/02 06:40:04;;;;;;;22.80;14.93;;;;;;;17.96;72.80;101618.84;5112435;28;20137;-60
2022/08/02 06:42:41;;;;;;;23.63;15.98;;;;;;;18.13;72.98;101640.34;5112340;28;20108;-61
2022/08/02 06:45:07;;;;;;;24.80;16.13;;;;;;;18.12;72.31;101629.47;5112862;28;20077;-60
2022/08/02 06:47:32;;;;;;;22.92;15.60;;;;;;;18.17;72.67;101626.47;5113838;28;20027;-60
2022/08/02 06:49:58;;;;;;;23.08;16.30;;;;;;;18.19;72.30;101616.56;5112693;28;20111;-60
2022/08/02 06:52:25;;;;;;;24.50;16.17;;;;;;;18.11;72.05;101603.44;5112435;28;20114;-60
2022/08/02 06:54:51;;;;;;;24.15;16.38;;;;;;;18.30;71.87;101624.56;5113669;28;20043;-60
2022/08/02 06:57:16;;;;;;;23.83;15.82;;;;;;;18.40;72.46;101621.38;5112363;28;20104;-60
2022/08/02 06:59:41;;;;;;;23.65;16.15;;;;;;;18.45;71.87;101618.34;5111732;28;20118;-60
2022/08/02 07:02:10;;;;;;;24.58;16.88;;;;;;;18.60;71.50;101616.13;5112796;28;20103;-61
2022/08/02 07:04:36;;;;;;;24.48;17.00;;;;;;;18.69;71.85;101617.66;5114278;28;20035;-60
2022/08/02 07:07:01;;;;;;;23.00;16.13;;;;;;;18.77;71.13;101620.72;5112598;28;20032;-60
2022/08/02 07:09:27;;;;;;;24.40;16.67;;;;;;;18.83;71.51;101622.19;5112492;28;20024;-60
2022/08/02 07:11:52;;;;;;;24.15;16.17;;;;;;;18.93;71.72;101620.94;5112410;28;20351;-61
2022/08/02 07:14:17;;;;;;;23.48;16.58;;;;;;;19.11;71.22;101628.03;5111885;28;20035;-60
2022/08/02 07:16:43;;;;;;;24.48;16.52;;;;;;;19.23;71.70;101623.63;5111779;28;20068;-61
2022/08/02 07:19:08;;;;;;;23.08;15.75;;;;;;;19.34;70.74;101622.00;5111839;28;20027;-61
2022/08/02 07:21:33;;;;;;;24.05;15.88;;;;;;;19.47;70.92;101622.84;5111643;28;20042;-60
2022/08/02 07:23:58;;;;;;;23.52;15.15;;;;;;;19.54;70.86;101614.66;5111718;28;20066;-60
2022/08/02 07:26:24;;;;;;;22.80;15.38;;;;;;;19.67;70.62;101621.09;5113660;28;20062;-62
2022/08/02 07:28:49;;;;;;;23.55;15.73;;;;;;;19.75;71.48;101608.94;5113451;28;20034;-60
2022/08/02 07:31:15;;;;;;;21.73;14.57;;;;;;;19.84;70.51;101617.25;5112143;28;20027;-60
2022/08/02 07:33:40;;;;;;;23.52;15.00;;;;;;;19.82;70.28;101608.34;5111987;28;20055;-61
2022/08/02 07:36:07;;;;;;;21.88;15.02;;;;;;;19.88;69.86;101611.78;5111757;28;20070;-60
2022/08/02 07:38:33;;;;;;;23.67;14.57;;;;;;;19.75;69.98;101597.72;5111434;28;20387;-60
2022/08/02 07:40:58;;;;;;;23.17;15.10;;;;;;;19.91;71.04;101609.09;5112795;28;20028;-60
2022/08/02 07:43:23;;;;;;;23.42;15.35;;;;;;;19.99;70.54;101612.13;5111047;28;20044;-60
2022/08/02 07:45:49;;;;;;;22.15;15.80;;;;;;;20.05;69.92;101611.53;5111196;28;20111;-60
2022/08/02 07:48:14;;;;;;;22.60;15.00;;;;;;;20.10;69.63;101611.31;5111508;28;20032;-60
2022/08/02 07:50:40;;;;;;;23.38;14.75;;;;;;;20.18;69.94;101612.31;5110990;28;20023;-59
2022/08/02 07:53:05;;;;;;;23.55;14.68;;;;;;;20.23;69.42;101594.41;5111117;28;20434;-60
2022/08/02 07:55:30;;;;;;;21.52;14.57;;;;;;;20.48;69.72;101616.84;5111419;28;20469;-59
2022/08/02 07:57:56;;;;;;;21.60;13.98;;;;;;;20.60;68.59;101613.97;5110947;28;20032;-59
2022/08/02 08:00:21;;;;;;;22.08;14.57;;;;;;;20.53;68.53;101588.47;5111146;28;20057;-59
2022/08/02 08:02:46;;;;;;;21.70;13.40;;;;;;;20.78;67.97;101599.66;5110962;28;20028;-61
2022/08/02 08:05:13;;;;;;;22.88;13.77;;;;;;;20.97;68.21;101613.03;5111272;28;20038;-60
2022/08/02 08:07:39;;;;;;;22.27;13.68;;;;;;;21.00;66.12;101609.53;5111278;28;20424;-60
2022/08/02 08:10:06;;;;;;;21.10;13.57;;;;;;;21.12;65.96;101603.00;5110979;28;20054;-60
2022/08/02 08:12:31;;;;;;;21.52;12.73;;;;;;;21.29;65.21;101599.03;5111055;28;20028;-61
2022/08/02 08:14:56;;;;;;;21.42;13.20;;;;;;;21.34;64.91;101590.31;5110986;28;20359;-60
2022/08/02 08:17:22;;;;;;;21.17;13.27;;;;;;;21.50;64.76;101598.75;5110549;28;20406;-60
2022/08/02 08:19:47;;;;;;;20.75;13.20;;;;;;;21.69;65.43;101600.84;5110970;28;20395;-60
2022/08/02 08:22:13;;;;;;;21.38;13.25;;;;;;;21.75;63.36;101590.13;5111001;28;20023;-60
2022/08/02 08:24:38;;;;;;;20.90;12.20;;;;;;;21.75;63.00;101585.34;5111444;28;20034;-60
2022/08/02 08:27:05;;;;;;;18.40;11.00;;;;;;;21.79;62.66;101591.84;5111043;28;20032;-60
2022/08/02 08:29:30;;;;;;;18.65;11.68;;;;;;;21.69;62.60;101571.91;5110537;28;20156;-60
2022/08/02 08:31:55;;;;;;;18.67;11.02;;;;;;;21.91;62.55;101590.94;5110772;28;20031;-60
2022/08/02 08:34:22;;;;;;;18.17;10.52;;;;;;;21.99;60.77;101589.09;5111187;28;20039;-60
2022/08/02 08:36:48;;;;;;;18.05;9.95;;;;;;;22.07;59.51;101579.63;5111052;28;20034;-60
2022/08/02 08:39:14;;;;;;;17.23;9.85;;;;;;;22.12;58.49;101570.06;5111180;28;20031;-60
2022/08/02 08:41:42;;;;;;;15.93;9.60;;;;;;;22.33;58.06;101595.09;5111197;28;20028;-60
2022/08/02 08:44:08;;;;;;;17.13;9.13;;;;;;;22.42;57.68;101589.28;5110983;28;20131;-60
2022/08/02 08:46:36;;;;;;;17.77;10.02;;;;;;;22.52;57.64;101590.69;5111035;28;20410;-60
2022/08/02 08:49:22;;;;;;;17.75;9.80;;;;;;;22.62;56.96;101597.72;5111126;28;20023;-61
2022/08/02 08:51:52;;;;;;;17.27;9.20;;;;;;;22.68;56.39;101591.44;5111162;28;20108;-60
2022/08/02 08:54:22;;;;;;;15.98;9.07;;;;;;;22.62;56.24;101572.34;5111439;28;20046;-60
2022/08/02 08:56:48;;;;;;;19.13;8.90;;;;;;;22.80;56.26;101586.81;5114627;28;20019;-60
2022/08/02 08:59:13;;;;;;;16.98;9.20;;;;;;;22.80;54.83;101567.88;5115400;28;20030;-60
2022/08/02 09:01:39;;;;;;;15.98;8.60;;;;;;;23.00;54.77;101590.41;5115083;28;20153;-60
2022/08/02 09:04:04;;;;;;;16.42;8.55;;;;;;;23.02;53.26;101593.69;5115174;28;20027;-60
2022/08/02 09:06:29;;;;;;;15.30;8.55;;;;;;;22.91;52.58;101570.91;5114845;28;20497;-60
2022/08/02 09:08:55;;;;;;;15.05;8.90;;;;;;;23.00;53.11;101593.25;5115915;28;20024;-60
2022/08/02 09:11:25;;;;;;;13.75;8.10;;;;;;;22.96;52.76;101592.34;5114451;28;20038;-60
2022/08/02 09:13:56;;;;;;;15.45;8.52;;;;;;;22.92;52.32;101578.16;5114500;28;20482;-59
2022/08/02 09:16:42;;;;;;;13.10;8.07;;;;;;;22.98;52.59;101587.97;5114844;28;20111;-60
2022/08/02 09:19:17;;;;;;;14.55;8.15;;;;;;;23.00;51.52;101579.13;5115209;28;20448;-61
2022/08/02 09:21:43;;;;;;;12.70;7.88;;;;;;;23.09;49.66;101595.84;5115299;28;20085;-61
2022/08/02 09:24:21;;;;;;;13.18;7.90;;;;;;;23.12;50.95;101589.44;5115130;28;20024;-60
2022/08/02 09:26:48;;;;;;;12.85;7.88;;;;;;;23.29;49.78;101591.78;5114646;28;20027;-59
2022/08/02 09:29:14;;;;;;;14.15;8.00;;;;;;;23.43;50.13;101577.09;5114295;28;20028;-61
2022/08/02 09:31:41;;;;;;;14.27;8.20;;;;;;;23.64;48.45;101592.75;5114679;28;20031;-60
2022/08/02 09:34:07;;;;;;;14.15;8.70;;;;;;;23.72;48.67;101586.03;5114235;28;20023;-61
2022/08/02 09:36:41;;;;;;;12.13;8.18;;;;;;;23.70;48.46;101562.19;5113965;28;20477;-61
2022/08/02 09:39:12;;;;;;;15.70;8.57;;;;;;;23.98;47.69;101585.25;5114696;28;20434;-62
2022/08/02 09:41:40;;;;;;;14.10;8.20;;;;;;;24.05;46.82;101592.19;5114485;28;20019;-60
2022/08/02 09:44:11;;;;;;;13.82;8.00;;;;;;;24.16;45.05;101589.56;5113506;28;20051;-59
2022/08/02 09:46:38;;;;;;;12.35;7.70;;;;;;;24.25;45.81;101587.25;5113952;28;20015;-60
2022/08/02 09:49:06;;;;;;;13.80;8.32;;;;;;;24.44;46.32;101589.94;5113973;28;20016;-60
2022/08/02 09:51:53;;;;;;;11.93;8.00;;;;;;;24.57;46.27;101587.66;5114270;28;20054;-61
2022/08/02 09:54:23;;;;;;;10.18;7.45;;;;;;;24.53;42.33;101592.44;5093513;28;20059;-60
2022/08/02 09:56:53;;;;;;;12.15;7.60;;;;;;;24.54;43.82;101591.25;5093252;28;20059;-60
2022/08/02 09:59:20;;;;;;;13.98;8.18;;;;;;;24.49;42.58;101579.47;5093587;28;20464;-60
2022/08/02 10:01:48;;;;;;;14.38;8.02;;;;;;;24.59;43.09;101601.41;5093761;28;20498;-60
2022/08/02 10:04:14;;;;;;;10.80;7.82;;;;;;;24.57;43.45;101596.16;5093306;28;20468;-59
2022/08/02 10:06:43;;;;;;;11.82;7.78;;;;;;;24.73;44.03;101593.16;5092842;28;20044;-59
2022/08/02 10:09:09;;;;;;;11.30;7.70;;;;;;;24.80;41.92;101597.25;5092587;28;20092;-59
2022/08/02 10:11:35;;;;;;;12.98;7.65;;;;;;;24.75;41.03;101584.25;5094358;28;20506;-60
2022/08/02 10:14:06;;;;;;;15.30;8.23;;;;;;;24.72;41.62;101568.06;5093612;28;20024;-59
2022/08/02 10:16:39;;;;;;;12.98;7.50;;;;;;;24.97;40.80;101595.81;5093663;28;20028;-60
2022/08/02 10:19:04;;;;;;;14.82;7.97;;;;;;;25.12;41.15;101585.47;5093424;28;20028;-60
2022/08/02 10:21:38;;;;;;;12.95;7.78;;;;;;;25.24;40.86;101582.31;5093648;28;20028;-59
2022/08/02 10:24:09;;;;;;;12.38;7.65;;;;;;;25.30;40.74;101574.28;5094542;28;20475;-59
2022/08/02 10:26:38;;;;;;;10.80;7.50;;;;;;;25.35;40.13;101562.63;5092712;28;20027;-60
2022/08/02 10:29:04;;;;;;;11.48;7.78;;;;;;;25.59;39.41;101578.22;5093987;28;20084;-59
2022/08/02 10:31:36;;;;;;;11.65;7.50;;;;;;;25.69;39.13;101579.50;5092360;28;20387;-60
2022/08/02 10:34:03;;;;;;;11.57;7.80;;;;;;;25.82;38.84;101565.81;5092607;28;20055;-60
2022/08/02 10:36:32;;;;;;;13.30;7.90;;;;;;;25.99;38.93;101567.16;5092310;28;20035;-61
2022/08/02 10:39:00;;;;;;;9.25;7.28;;;;;;;26.00;37.97;101568.78;5092149;28;20487;-61
2022/08/02 10:41:39;;;;;;;10.27;7.40;;;;;;;26.10;38.16;101575.75;5092310;28;20476;-61
2022/08/02 10:44:04;;;;;;;12.43;7.40;;;;;;;26.08;37.89;101559.09;5092683;28;20040;-60
2022/08/02 10:46:34;;;;;;;10.55;7.57;;;;;;;26.10;37.97;101573.72;5093183;28;20083;-61
2022/08/02 10:49:01;;;;;;;11.73;7.60;;;;;;;26.11;38.57;101564.03;5092071;28;20036;-62
2022/08/02 10:51:52;;;;;;;11.90;7.68;;;;;;;26.28;38.25;101575.84;5092215;28;20085;-60
2022/08/02 10:54:22;;;;;;;10.95;7.40;;;;;;;26.05;37.47;101561.91;5092453;28;20024;-60
2022/08/02 10:56:49;;;;;;;12.27;7.30;;;;;;;25.97;36.88;101580.91;5093799;28;20102;-60
2022/08/02 10:59:34;;;;;;;11.55;6.90;;;;;;;25.94;37.47;101573.19;5092419;28;20109;-60
2022/08/02 11:02:01;;;;;;;10.13;7.18;;;;;;;25.90;36.59;101563.84;5092752;28;20016;-59
2022/08/02 11:04:49;;;;;;;12.75;7.10;;;;;;;26.11;37.50;101569.69;5092005;28;20024;-61
2022/08/02 11:07:17;;;;;;;9.93;6.78;;;;;;;26.13;35.29;101567.25;5080542;28;20040;-61
2022/08/02 11:09:47;;;;;;;9.23;6.80;;;;;;;26.27;35.75;101574.22;5091902;28;20027;-60
2022/08/02 11:12:18;;;;;;;9.63;6.80;;;;;;;26.23;35.41;101548.69;5108247;28;20047;-60
2022/08/02 11:14:57;;;;;;;9.25;7.05;;;;;;;26.44;35.49;101569.84;5092096;28;20032;-60
2022/08/02 11:17:23;;;;;;;10.13;6.95;;;;;;;26.59;35.41;101551.66;5091697;28;20043;-60
2022/08/02 11:20:07;;;;;;;10.23;7.03;;;;;;;26.82;35.23;101561.06;5090954;28;20043;-60
2022/08/02 11:22:33;;;;;;;10.07;6.95;;;;;;;26.79;34.17;101554.16;5091663;28;20130;-60